tititudorancea.com
Ararat Weather - Ararat,Victoria,Australia
 
Daily Summary for April 02, 2015 Units:  Metric    English   Both
« Previous Day
Next Day »
Daily Weekly Monthly Yearly Custom
  Current: High: Low: Average:
Temperature: 15.1 °C 17.1 °C 7.9 °C 11.5 °C
Dew Point: 3.3 °C 14.3 °C 3.3 °C 7.6 °C
Humidity: 45% 92% 45% 78%
Wind Speed: 14.8km/h 24.5km/h 2.6km/h 11.4km/h
Wind Gust: 29.5km/h 41.7km/h - -
WindSouth - - SSW
Pressure: 1018.8 hPa 1019.2 hPa 1011.1 hPa -
Precipitation: 1.52 mm      
Historical Graphs
 
 
Ararat weather Find more about Weather in Ararat, AU


 




 


Tabular Data for April 02, 2015
Time Temperature Dew Point Pressure Wind Wind Speed Wind Gust Humidity Rainfall Rate (Hourly)
00:02 17.1 °C 13.9 °C 1011.1 hPa SW 2.6 km/h 23.3 km/h 82% 0 mm
00:07 17.1 °C 13.9 °C 1011.4 hPa SSW 3.5 km/h 19.5 km/h 82% 0.25 mm
00:12 16.9 °C 14.1 °C 1011.4 hPa SSW 8.7 km/h 14.8 km/h 83% 0.25 mm
00:17 16.8 °C 14.3 °C 1011.7 hPa SSW 9.7 km/h 18.3 km/h 85% 0.25 mm
00:23 16.6 °C 14.2 °C 1012.1 hPa WSW 11.1 km/h 31.7 km/h 86% 0.76 mm
00:28 16.3 °C 13.9 °C 1011.7 hPa WSW 8.7 km/h 31.7 km/h 86% 1.02 mm
00:33 15.9 °C 13.4 °C 1012.1 hPa SW 15.8 km/h 28 km/h 85% 1.27 mm
00:38 15.4 °C 12.9 °C 1012.1 hPa WSW 15.8 km/h 35.6 km/h 85% 1.27 mm
00:43 14.8 °C 12.5 °C 1012.4 hPa SW 12.2 km/h 35.6 km/h 86% 1.27 mm
00:48 14.5 °C 12.6 °C 1012.4 hPa SSW 12.2 km/h 31.7 km/h 88% 1.27 mm
00:53 14.3 °C 12.3 °C 1012.4 hPa SW 11.1 km/h 31.7 km/h 88% 1.27 mm
00:58 14.2 °C 12.3 °C 1012.4 hPa SW 11.1 km/h 36.7 km/h 88% 1.27 mm
01:03 14.1 °C 12.3 °C 1012.4 hPa SSW 12.2 km/h 36.7 km/h 89% 1.27 mm
01:08 13.8 °C 12.1 °C 1012.8 hPa SW 14.8 km/h 27 km/h 89% 1.02 mm
01:13 13.5 °C 11.9 °C 1012.8 hPa SW 21.9 km/h 33.2 km/h 90% 1.02 mm
01:18 13.2 °C 11.6 °C 1013.1 hPa SSW 12.2 km/h 33.2 km/h 90% 1.02 mm
01:23 13.1 °C 11.7 °C 1013.1 hPa SW 15.8 km/h 29.5 km/h 91% 0.76 mm
01:28 13.1 °C 11.6 °C 1013.1 hPa SSW 9.7 km/h 29.5 km/h 91% 0.25 mm
01:33 12.9 °C 11.5 °C 1013.1 hPa SSW 13.4 km/h 29.5 km/h 91% 0 mm
01:38 12.8 °C 11.4 °C 1013.4 hPa SSW 19.5 km/h 27 km/h 91% 0 mm
01:43 12.7 °C 11.3 °C 1013.4 hPa SSW 12.2 km/h 27 km/h 91% 0 mm
01:48 12.6 °C 11.1 °C 1013.4 hPa SSW 12.2 km/h 27 km/h 91% 0 mm
01:53 12.2 °C 10.8 °C 1013.4 hPa South 18.3 km/h 28 km/h 91% 0 mm
01:58 12.1 °C 10.8 °C 1013.4 hPa SSW 15.8 km/h 28 km/h 92% 0.25 mm
02:03 11.9 °C 10.7 °C 1013.8 hPa SSW 6.1 km/h 28 km/h 92% 0.25 mm
02:08 11.8 °C 10.6 °C 1014.1 hPa SSW 14.8 km/h 35.6 km/h 92% 0.25 mm
02:13 11.8 °C 10.5 °C 1013.8 hPa SSW 15.8 km/h 35.6 km/h 92% 0.25 mm
02:18 11.8 °C 10.5 °C 1013.8 hPa SW 12.2 km/h 30.6 km/h 92% 0.25 mm
02:23 11.4 °C 9.7 °C 1014.1 hPa SSW 14.8 km/h 36.7 km/h 89% 0.25 mm
02:28 11.4 °C 9.6 °C 1014.1 hPa SW 11.1 km/h 36.7 km/h 89% 0.25 mm
02:34 11.4 °C 9.7 °C 1013.8 hPa SW 13.4 km/h 27 km/h 89% 0.25 mm
02:39 11.4 °C 9.7 °C 1013.8 hPa SW 11.1 km/h 25.6 km/h 89% 0.25 mm
02:44 11.4 °C 9.7 °C 1013.8 hPa SSW 7.2 km/h 25.6 km/h 89% 0.25 mm
02:49 11.4 °C 9.7 °C 1013.8 hPa SSW 6.1 km/h 23.3 km/h 89% 0.25 mm
02:54 11.6 °C 9.8 °C 1013.8 hPa SSW 7.2 km/h 17.2 km/h 89% 0 mm
02:59 11.6 °C 9.8 °C 1014.1 hPa SW 8.7 km/h 15.8 km/h 89% 0 mm
03:04 11.6 °C 9.8 °C 1014.1 hPa SSW 8.7 km/h 17.2 km/h 89% 0 mm
03:09 11.6 °C 9.8 °C 1013.8 hPa SSW 14.8 km/h 25.6 km/h 89% 0 mm
03:14 11.6 °C 9.7 °C 1013.8 hPa SSW 13.4 km/h 25.6 km/h 88% 0 mm
03:19 11.6 °C 9.3 °C 1013.8 hPa SW 9.7 km/h 29.5 km/h 86% 0 mm
03:24 11.4 °C 8.6 °C 1014.1 hPa SW 13.4 km/h 34.3 km/h 83% 0 mm
03:29 11.3 °C 8.3 °C 1014.1 hPa SSW 14.8 km/h 34.3 km/h 82% 0 mm
03:34 11.1 °C 8.3 °C 1014.1 hPa SSW 12.2 km/h 25.6 km/h 83% 0 mm
03:39 11.1 °C 8.3 °C 1014.1 hPa SW 12.2 km/h 25.6 km/h 83% 0 mm
03:44 11 °C 8.2 °C 1014.1 hPa SSW 9.7 km/h 24.5 km/h 83% 0 mm
03:49 10.9 °C 8.3 °C 1014.1 hPa South 12.2 km/h 25.6 km/h 84% 0 mm
03:54 10.9 °C 8.3 °C 1014.4 hPa South 12.2 km/h 25.6 km/h 84% 0 mm
03:59 10.9 °C 8.4 °C 1014.1 hPa South 7.2 km/h 27 km/h 85% 0 mm
04:04 10.9 °C 8.4 °C 1014.1 hPa South 6.1 km/h 27 km/h 85% 0 mm
04:10 10.8 °C 8.6 °C 1014.1 hPa South 9.7 km/h 18.3 km/h 86% 0 mm
04:15 10.7 °C 8.4 °C 1014.4 hPa SSW 11.1 km/h 24.5 km/h 86% 0 mm
04:20 10.7 °C 8.6 °C 1014.4 hPa South 11.1 km/h 24.5 km/h 87% 0 mm
04:25 10.6 °C 8.5 °C 1014.1 hPa South 12.2 km/h 27 km/h 87% 0 mm
04:30 10.6 °C 8.5 °C 1014.4 hPa SSW 11.1 km/h 30.6 km/h 87% 0 mm
04:35 10.5 °C 8.4 °C 1014.1 hPa SSW 12.2 km/h 30.6 km/h 87% 0 mm
04:40 10.5 °C 8.4 °C 1014.1 hPa South 14.8 km/h 28 km/h 87% 0 mm
04:45 10.3 °C 8.4 °C 1014.4 hPa South 12.2 km/h 28 km/h 88% 0 mm
04:50 10.4 °C 8.5 °C 1014.4 hPa South 11.1 km/h 23.3 km/h 88% 0 mm
04:55 10.3 °C 8.4 °C 1014.4 hPa SSW 9.7 km/h 20.9 km/h 88% 0 mm
05:00 10.3 °C 8.4 °C 1014.4 hPa SSW 14.8 km/h 21.9 km/h 88% 0 mm
05:05 10.3 °C 8.4 °C 1014.8 hPa SW 8.7 km/h 21.9 km/h 88% 0 mm
05:10 10.3 °C 8.2 °C 1014.4 hPa SW 8.7 km/h 20.9 km/h 87% 0 mm
05:15 10.2 °C 8.1 °C 1014.4 hPa SSW 12.2 km/h 27 km/h 87% 0 mm
05:20 10.2 °C 8.1 °C 1014.4 hPa SSW 12.2 km/h 27 km/h 87% 0 mm
05:25 10.1 °C 8.1 °C 1014.8 hPa SSW 8.7 km/h 20.9 km/h 87% 0 mm
05:30 10 °C 7.9 °C 1014.8 hPa SSW 14.8 km/h 24.5 km/h 87% 0 mm
05:35 10 °C 7.8 °C 1015.1 hPa SSW 11.1 km/h 24.5 km/h 86% 0 mm
05:41 9.9 °C 7.7 °C 1014.8 hPa SSW 8.7 km/h 21.9 km/h 86% 0 mm
05:46 9.8 °C 7.4 °C 1014.8 hPa SSW 7.2 km/h 23.3 km/h 85% 0 mm
05:51 9.7 °C 7.3 °C 1015.1 hPa SSW 12.2 km/h 24.5 km/h 85% 0 mm
05:56 9.7 °C 7.1 °C 1014.8 hPa SSW 9.7 km/h 30.6 km/h 84% 0 mm
06:01 9.6 °C 7.1 °C 1015.1 hPa SSW 6.1 km/h 30.6 km/h 84% 0 mm
06:06 9.5 °C 6.9 °C 1015.1 hPa SSW 8.7 km/h 18.3 km/h 84% 0 mm
06:11 9.3 °C 6.6 °C 1015.1 hPa SSW 11.1 km/h 20.9 km/h 83% 0 mm
06:16 9.3 °C 6.4 °C 1015.1 hPa SSW 13.4 km/h 20.9 km/h 82% 0 mm
06:21 9.2 °C 6.3 °C 1015.1 hPa SW 8.7 km/h 20.9 km/h 82% 0 mm
06:26 9.1 °C 6 °C 1015.1 hPa SW 12.2 km/h 20.9 km/h 81% 0 mm
06:31 9 °C 5.9 °C 1015.5 hPa SSW 8.7 km/h 18.3 km/h 81% 0 mm
06:36 8.9 °C 5.8 °C 1015.5 hPa South 6.1 km/h 18.3 km/h 81% 0 mm
06:41 8.8 °C 5.7 °C 1015.5 hPa SSE 5 km/h 18.3 km/h 81% 0 mm
06:46 8.7 °C 5.7 °C 1015.5 hPa South 8.7 km/h 17.2 km/h 81% 0 mm
06:51 8.6 °C 5.6 °C 1015.8 hPa South 5 km/h 13.4 km/h 81% 0 mm
06:56 8.5 °C 5.4 °C 1015.8 hPa South 6.1 km/h 13.4 km/h 81% 0 mm
07:01 8.4 °C 5.3 °C 1015.8 hPa South 8.7 km/h 15.8 km/h 81% 0 mm
07:06 8.3 °C 5.3 °C 1015.8 hPa South 6.1 km/h 15.8 km/h 81% 0 mm
07:11 8.2 °C 5.2 °C 1015.8 hPa South 6.1 km/h 14.8 km/h 81% 0 mm
07:16 8.1 °C 5 °C 1016.1 hPa South 8.7 km/h 15.8 km/h 81% 0 mm
07:21 8.1 °C 5 °C 1015.8 hPa SSW 5 km/h 15.8 km/h 81% 0 mm
07:27 7.9 °C 4.9 °C 1016.1 hPa SSW 8.7 km/h 15.8 km/h 81% 0 mm
07:32 7.9 °C 4.9 °C 1016.1 hPa SSW 9.7 km/h 15.8 km/h 81% 0 mm
07:37 7.9 °C 4.9 °C 1016.1 hPa SSW 9.7 km/h 17.2 km/h 81% 0 mm
07:42 7.9 °C 4.7 °C 1016.5 hPa South 7.2 km/h 18.3 km/h 80% 0 mm
07:47 8.1 °C 4.8 °C 1016.5 hPa SSW 7.2 km/h 19.5 km/h 80% 0 mm
07:52 8.1 °C 4.7 °C 1016.5 hPa SSW 8.7 km/h 19.5 km/h 79% 0 mm
07:57 8.1 °C 4.7 °C 1016.5 hPa SSW 7.2 km/h 17.2 km/h 79% 0 mm
08:02 8.1 °C 4.6 °C 1016.5 hPa SSW 6.1 km/h 17.2 km/h 78% 0 mm
08:07 8.2 °C 4.6 °C 1016.5 hPa South 6.1 km/h 17.2 km/h 78% 0 mm
08:12 8.3 °C 4.7 °C 1016.8 hPa South 7.2 km/h 17.2 km/h 78% 0 mm
08:17 8.4 °C 4.8 °C 1016.8 hPa SSW 7.2 km/h 13.4 km/h 78% 0 mm
08:22 8.5 °C 4.9 °C 1016.8 hPa SSW 9.7 km/h 21.9 km/h 78% 0 mm
08:27 8.7 °C 5.1 °C 1016.8 hPa South 7.2 km/h 21.9 km/h 78% 0 mm
08:32 8.9 °C 5.3 °C 1017.2 hPa SSW 11.1 km/h 19.5 km/h 78% 0 mm
08:37 9.2 °C 5.4 °C 1016.8 hPa SSW 12.2 km/h 19.5 km/h 77% 0 mm
08:42 9.4 °C 5.6 °C 1017.2 hPa South 7.2 km/h 24.5 km/h 77% 0 mm
08:47 9.6 °C 5.6 °C 1017.2 hPa South 8.7 km/h 24.5 km/h 76% 0 mm
08:52 9.8 °C 5.8 °C 1017.5 hPa SSW 8.7 km/h 29.5 km/h 76% 0 mm
08:57 10 °C 5.8 °C 1017.5 hPa SW 13.4 km/h 29.5 km/h 75% 0 mm
09:02 10.2 °C 5.8 °C 1017.5 hPa SSW 9.7 km/h 23.3 km/h 74% 0 mm
09:07 10.4 °C 5.9 °C 1017.8 hPa SSW 13.4 km/h 20.9 km/h 74% 0 mm
09:12 10.4 °C 5.8 °C 1017.5 hPa SSW 9.7 km/h 23.3 km/h 73% 0 mm
09:17 10.5 °C 5.8 °C 1017.8 hPa South 8.7 km/h 23.3 km/h 73% 0 mm
09:22 10.6 °C 5.9 °C 1017.8 hPa SSW 11.1 km/h 24.5 km/h 73% 0 mm
09:27 10.7 °C 5.8 °C 1017.8 hPa SSW 14.8 km/h 24.5 km/h 72% 0 mm
09:32 10.8 °C 5.9 °C 1017.8 hPa SSW 8.7 km/h 23.3 km/h 72% 0 mm
09:37 10.9 °C 5.8 °C 1018.2 hPa South 14.8 km/h 28 km/h 71% 0 mm
09:42 11 °C 6.1 °C 1018.2 hPa South 11.1 km/h 28 km/h 72% 0 mm
09:47 11.2 °C 6.3 °C 1018.2 hPa South 8.7 km/h 28 km/h 72% 0 mm
09:52 11.4 °C 6.8 °C 1018.2 hPa South 8.7 km/h 24.5 km/h 73% 0 mm
09:57 11.8 °C 6.7 °C 1018.2 hPa South 13.4 km/h 27 km/h 71% 0 mm
10:02 12.1 °C 6.3 °C 1018.2 hPa South 18.3 km/h 34.3 km/h 68% 0 mm
10:07 12.3 °C 6.4 °C 1018.5 hPa South 14.8 km/h 34.3 km/h 67% 0 mm
10:12 12.7 °C 6.4 °C 1018.2 hPa South 12.2 km/h 33.2 km/h 66% 0 mm
10:18 12.7 °C 5.9 °C 1018.2 hPa South 13.4 km/h 33.2 km/h 63% 0 mm
10:23 12.7 °C 5.4 °C 1018.5 hPa South 13.4 km/h 31.7 km/h 61% 0 mm
10:28 12.9 °C 5.3 °C 1018.5 hPa South 18.3 km/h 30.6 km/h 60% 0 mm
10:33 13.1 °C 5.2 °C 1018.8 hPa SSW 19.5 km/h 33.2 km/h 59% 0 mm
10:38 13.2 °C 5.6 °C 1018.5 hPa South 15.8 km/h 33.2 km/h 60% 0 mm
10:43 13.1 °C 5.4 °C 1018.8 hPa SSE 21.9 km/h 39.3 km/h 60% 0 mm
10:48 13.2 °C 5.9 °C 1018.8 hPa SE 17.2 km/h 39.3 km/h 61% 0 mm
10:53 13.4 °C 5.8 °C 1018.8 hPa SSE 12.2 km/h 39.3 km/h 60% 0 mm
10:58 13.8 °C 5.9 °C 1018.8 hPa SSW 12.2 km/h 30.6 km/h 59% 0 mm
11:03 14.2 °C 5.6 °C 1018.8 hPa South 15.8 km/h 30.6 km/h 56% 0 mm
11:08 14.2 °C 5.6 °C 1018.5 hPa SSE 14.8 km/h 31.7 km/h 56% 0 mm
11:13 14.4 °C 4.4 °C 1018.8 hPa South 24.5 km/h 35.6 km/h 51% 0 mm
11:18 14.1 °C 4.4 °C 1018.8 hPa South 15.8 km/h 35.6 km/h 52% 0 mm
11:23 14 °C 4.6 °C 1018.8 hPa SSW 11.1 km/h 35.6 km/h 53% 0 mm
11:28 14.5 °C 5.1 °C 1018.8 hPa SSW 15.8 km/h 35.6 km/h 53% 0 mm
11:33 14.7 °C 4.9 °C 1018.8 hPa South 11.1 km/h 35.6 km/h 52% 0 mm
11:38 14.7 °C 4.4 °C 1018.8 hPa SSE 15.8 km/h 30.6 km/h 50% 0 mm
11:43 14.5 °C 5.1 °C 1018.8 hPa South 13.4 km/h 34.3 km/h 53% 0 mm
11:48 14.4 °C 4.9 °C 1019.2 hPa South 13.4 km/h 41.7 km/h 53% 0 mm
11:53 14.8 °C 4.8 °C 1018.8 hPa SSE 13.4 km/h 41.7 km/h 51% 0 mm
11:58 14.9 °C 3.7 °C 1019.2 hPa SSE 15.8 km/h 35.6 km/h 47% 0 mm
12:03 15.1 °C 3.9 °C 1018.8 hPa South 12.2 km/h 35.6 km/h 47% 0 mm
12:09 15.3 °C 4.1 °C 1018.8 hPa South 15.8 km/h 28 km/h 47% 0 mm
12:14 15.1 °C 3.3 °C 1019.2 hPa South 15.8 km/h 28 km/h 45% 0 mm
12:19 15.1 °C 3.3 °C 1018.8 hPa South 14.8 km/h 29.5 km/h 45% 0 mm
www.araratweather.com - Email: contact at araratweather.com
Data created with Cumulus & bmak
Click here to send mail.


ABOUT

Live weather data from Ararat, Victoria, Australia, 3377
Data uploaded from Cumulus every 5 minutes to Weather Underground.
This site then downloads the raw data for formatting and display.
Metric and imperial data can be displayed. Graphs and historical data available.
Includes Sun and Moon times and rain image live from BOM.

Check out Ararat Weather on Facebook, Twitter and Google +

Help support ongoing costs by checking out the ads





Follow @AraratWeather